createdAt,value
2023-01-12T00:01:56.082Z,0.80
2023-01-12T00:04:20.923Z,0.80
2023-01-12T00:06:45.797Z,0.80
2023-01-12T00:09:11.588Z,0.80
2023-01-12T00:11:40.778Z,0.90
2023-01-12T00:14:05.709Z,0.90
2023-01-12T00:16:37.930Z,0.90
2023-01-12T00:19:02.899Z,1.00
2023-01-12T00:21:28.329Z,1.00
2023-01-12T00:23:52.989Z,1.10
2023-01-12T00:26:18.324Z,1.10
2023-01-12T00:28:45.580Z,1.00
2023-01-12T00:31:12.586Z,1.10
2023-01-12T00:33:37.752Z,1.10
2023-01-12T00:36:04.348Z,1.10
2023-01-12T00:38:28.975Z,1.10
2023-01-12T00:40:53.525Z,1.10
2023-01-12T00:43:35.462Z,1.10
2023-01-12T00:46:01.421Z,1.10
2023-01-12T00:48:26.792Z,1.00
2023-01-12T00:50:51.469Z,1.10
2023-01-12T00:53:15.933Z,1.00
2023-01-12T00:55:40.383Z,0.90
2023-01-12T00:58:04.803Z,0.90
2023-01-12T01:00:29.541Z,0.90
2023-01-12T01:02:55.687Z,1.00
2023-01-12T01:05:20.289Z,0.90
2023-01-12T01:07:46.940Z,1.00
2023-01-12T01:10:12.769Z,1.10
2023-01-12T01:12:37.781Z,1.10
2023-01-12T01:15:02.348Z,1.00
2023-01-12T01:17:28.881Z,1.10
2023-01-12T01:19:55.287Z,1.10
2023-01-12T01:22:19.815Z,1.10
2023-01-12T01:24:44.460Z,1.10
2023-01-12T01:27:09.463Z,1.20
2023-01-12T01:29:33.986Z,1.10
2023-01-12T01:32:00.986Z,1.10
2023-01-12T01:34:25.664Z,1.10
2023-01-12T01:36:51.522Z,1.10
2023-01-12T01:39:16.009Z,1.10
2023-01-12T01:41:43.425Z,1.20
2023-01-12T01:45:01.214Z,1.20
2023-01-12T01:47:34.729Z,1.30
2023-01-12T01:50:02.299Z,1.20
2023-01-12T01:52:33.416Z,1.20
2023-01-12T01:55:01.054Z,1.30
2023-01-12T01:57:30.363Z,1.20
2023-01-12T01:59:57.670Z,1.20
2023-01-12T02:02:23.924Z,1.00
2023-01-12T02:04:50.207Z,1.00
2023-01-12T02:07:14.721Z,1.00
2023-01-12T02:09:39.707Z,1.10
2023-01-12T02:12:23.116Z,1.10
2023-01-12T02:15:08.511Z,1.20
2023-01-12T02:17:45.927Z,1.20
2023-01-12T02:20:48.725Z,1.20
2023-01-12T02:23:52.148Z,1.20
2023-01-12T02:26:49.617Z,1.20
2023-01-12T02:29:42.230Z,1.10
2023-01-12T02:32:14.796Z,1.00
2023-01-12T02:34:47.416Z,1.00
2023-01-12T02:37:17.704Z,0.90
2023-01-12T02:39:50.120Z,0.90
2023-01-12T02:42:40.796Z,0.90
2023-01-12T02:45:16.698Z,1.00
2023-01-12T02:47:47.740Z,1.10
2023-01-12T02:50:16.265Z,1.10
2023-01-12T02:52:44.596Z,1.00
2023-01-12T02:55:11.141Z,0.90
2023-01-12T02:57:38.658Z,1.00
2023-01-12T03:00:04.155Z,1.00
2023-01-12T03:02:30.343Z,0.90
2023-01-12T03:04:56.538Z,1.00
2023-01-12T03:07:48.784Z,1.00
2023-01-12T03:10:38.643Z,1.00
2023-01-12T03:13:07.841Z,0.90
2023-01-12T03:15:32.528Z,0.90
2023-01-12T03:18:01.180Z,1.00
2023-01-12T03:20:30.130Z,1.00
2023-01-12T03:22:59.792Z,1.00
2023-01-12T03:25:27.697Z,1.00
2023-01-12T03:27:55.488Z,0.90
2023-01-12T03:30:23.981Z,0.90
2023-01-12T03:32:49.184Z,0.80
2023-01-12T03:35:14.340Z,0.80
2023-01-12T03:37:46.300Z,0.90
2023-01-12T03:40:14.530Z,0.90
2023-01-12T03:42:43.951Z,0.90
2023-01-12T03:45:17.176Z,0.90
2023-01-12T03:47:44.817Z,1.00
2023-01-12T03:50:14.867Z,1.00
2023-01-12T03:52:41.644Z,1.00
2023-01-12T03:55:09.863Z,0.90
2023-01-12T03:57:35.072Z,0.80
2023-01-12T04:00:02.085Z,0.90
2023-01-12T04:02:37.155Z,0.90
2023-01-12T04:05:01.840Z,0.90
2023-01-12T04:07:27.826Z,0.80
2023-01-12T04:09:53.866Z,0.80
2023-01-12T04:12:18.490Z,0.80
2023-01-12T04:14:46.893Z,0.80
2023-01-12T04:17:14.654Z,0.90
2023-01-12T04:19:39.178Z,0.90
2023-01-12T04:22:21.219Z,1.00
2023-01-12T04:24:45.685Z,0.90
2023-01-12T04:27:11.773Z,0.90
2023-01-12T04:29:36.406Z,0.90
2023-01-12T04:32:01.269Z,0.90
2023-01-12T04:34:26.508Z,0.80
2023-01-12T04:36:51.055Z,0.80
2023-01-12T04:39:15.543Z,0.90
2023-01-12T04:41:40.379Z,0.90
2023-01-12T04:44:06.433Z,0.90
2023-01-12T04:46:31.019Z,1.00
2023-01-12T04:48:55.650Z,0.90
2023-01-12T04:51:20.093Z,1.00
2023-01-12T04:53:44.562Z,1.00
2023-01-12T04:56:10.029Z,0.90
2023-01-12T04:58:35.045Z,1.00
2023-01-12T05:01:08.770Z,0.90
2023-01-12T05:03:33.793Z,0.90
2023-01-12T05:05:58.291Z,0.90
2023-01-12T05:08:40.544Z,1.00
2023-01-12T05:11:06.021Z,1.10
2023-01-12T05:13:33.214Z,1.10
2023-01-12T05:16:13.204Z,1.10
2023-01-12T05:18:37.807Z,1.30
2023-01-12T05:21:02.482Z,1.20
2023-01-12T05:23:27.594Z,1.20
2023-01-12T05:25:52.145Z,1.20
2023-01-12T05:28:16.887Z,1.20
2023-01-12T05:30:41.718Z,1.20
2023-01-12T05:33:08.064Z,1.20
2023-01-12T05:35:32.893Z,1.10
2023-01-12T05:37:57.517Z,1.10
2023-01-12T05:40:22.208Z,1.10
2023-01-12T05:43:04.796Z,1.10
2023-01-12T05:45:29.305Z,1.10
2023-01-12T05:47:59.193Z,1.20
2023-01-12T05:50:25.027Z,1.20
2023-01-12T05:53:05.022Z,1.20
2023-01-12T05:55:29.824Z,1.30
2023-01-12T05:57:54.661Z,1.30
2023-01-12T06:00:20.388Z,1.50
2023-01-12T06:02:44.898Z,1.50
2023-01-12T06:05:10.925Z,1.50
2023-01-12T06:07:37.329Z,1.50
2023-01-12T06:10:01.921Z,1.60
2023-01-12T06:12:45.202Z,1.50
2023-01-12T06:15:11.093Z,1.60
2023-01-12T06:17:35.650Z,1.50
2023-01-12T06:20:00.767Z,1.50
2023-01-12T06:22:27.534Z,1.40
2023-01-12T06:24:54.581Z,1.50
2023-01-12T06:27:21.896Z,1.60
2023-01-12T06:29:46.394Z,1.70
2023-01-12T06:32:11.109Z,1.60
2023-01-12T06:34:37.007Z,1.50
2023-01-12T06:37:02.800Z,1.40
2023-01-12T06:39:29.668Z,1.40
2023-01-12T06:42:13.645Z,1.30
2023-01-12T06:44:38.180Z,1.40
2023-01-12T06:47:04.462Z,1.40
2023-01-12T06:49:28.905Z,1.50
2023-01-12T06:51:53.586Z,1.50
2023-01-12T06:54:18.866Z,1.60
2023-01-12T06:56:43.433Z,1.60
2023-01-12T06:59:12.497Z,1.50
2023-01-12T07:01:37.244Z,1.50
2023-01-12T07:04:02.000Z,1.50
2023-01-12T07:06:26.820Z,1.50
2023-01-12T07:08:51.274Z,1.50
2023-01-12T07:11:17.019Z,1.50
2023-01-12T07:13:41.511Z,1.40
2023-01-12T07:16:08.854Z,1.30
2023-01-12T07:18:33.503Z,2.00
2023-01-12T07:20:59.146Z,2.30
2023-01-12T07:23:23.761Z,2.00
2023-01-12T07:25:48.165Z,1.80
2023-01-12T07:28:12.712Z,1.70
2023-01-12T07:30:37.457Z,1.40
2023-01-12T07:33:09.761Z,1.40
2023-01-12T07:35:35.307Z,1.30
2023-01-12T07:38:00.026Z,1.30
2023-01-12T07:40:24.511Z,1.20
2023-01-12T07:42:49.364Z,1.40
2023-01-12T07:45:15.239Z,1.50
2023-01-12T07:47:39.994Z,1.60
2023-01-12T07:50:07.262Z,1.60
2023-01-12T07:52:31.815Z,1.60
2023-01-12T07:54:56.864Z,1.60
2023-01-12T07:57:21.384Z,1.50
2023-01-12T07:59:45.820Z,1.70
2023-01-12T08:02:16.527Z,1.60
2023-01-12T08:04:41.047Z,1.40
2023-01-12T08:07:07.081Z,1.40
2023-01-12T08:09:31.419Z,1.30
2023-01-12T08:11:55.832Z,1.30
2023-01-12T08:14:29.295Z,1.20
2023-01-12T08:16:56.958Z,1.10
2023-01-12T08:19:26.234Z,1.10
2023-01-12T08:21:58.085Z,1.20
2023-01-12T08:24:27.363Z,1.20
2023-01-12T08:26:56.022Z,1.20
2023-01-12T08:29:30.119Z,1.20
2023-01-12T08:31:54.912Z,1.30
2023-01-12T08:34:20.044Z,1.40
2023-01-12T08:36:45.247Z,1.50
2023-01-12T08:39:09.971Z,1.60
2023-01-12T08:41:37.922Z,1.80
2023-01-12T08:44:06.350Z,1.90
2023-01-12T08:46:32.912Z,1.80
2023-01-12T08:48:57.479Z,1.80
2023-01-12T08:51:22.495Z,1.80
2023-01-12T08:53:47.462Z,1.90
2023-01-12T08:56:12.458Z,2.00
2023-01-12T08:58:38.722Z,2.10
2023-01-12T09:01:09.432Z,2.30
2023-01-12T09:03:36.483Z,2.40
2023-01-12T09:06:01.679Z,2.40
2023-01-12T09:08:26.600Z,2.30
2023-01-12T09:10:51.345Z,2.40
2023-01-12T09:13:16.546Z,2.60
2023-01-12T09:15:48.189Z,2.70
2023-01-12T09:18:17.242Z,2.90
2023-01-12T09:20:42.588Z,2.90
2023-01-12T09:23:07.455Z,2.80
2023-01-12T09:25:32.798Z,2.60
2023-01-12T09:27:58.270Z,2.60
2023-01-12T09:30:22.827Z,2.50
2023-01-12T09:32:48.811Z,2.40
2023-01-12T09:35:15.586Z,2.50
2023-01-12T09:37:43.233Z,2.60
2023-01-12T09:40:09.519Z,2.60
2023-01-12T09:42:51.310Z,2.50
2023-01-12T09:45:39.044Z,2.40
2023-01-12T09:48:06.755Z,2.30
2023-01-12T09:50:35.844Z,2.30
2023-01-12T09:53:07.157Z,2.30
2023-01-12T09:55:49.350Z,2.30
2023-01-12T09:58:30.401Z,2.40
2023-01-12T10:00:58.437Z,2.50
2023-01-12T10:03:30.525Z,2.60
2023-01-12T10:05:58.225Z,2.70
2023-01-12T10:08:31.871Z,2.60
2023-01-12T10:11:07.750Z,2.60
2023-01-12T10:13:49.172Z,2.50
2023-01-12T10:16:25.094Z,2.40
2023-01-12T10:18:54.674Z,2.40
2023-01-12T10:21:19.518Z,2.40
2023-01-12T10:23:44.369Z,2.30
2023-01-12T10:26:22.135Z,2.40
2023-01-12T10:28:47.849Z,2.50
2023-01-12T10:31:20.436Z,2.60
2023-01-12T10:34:05.180Z,2.70
2023-01-12T10:36:31.476Z,2.80
2023-01-12T10:38:59.612Z,2.90
2023-01-12T10:41:26.479Z,2.80
2023-01-12T10:44:14.761Z,2.80
2023-01-12T10:46:39.310Z,2.70
2023-01-12T10:49:22.752Z,2.70
2023-01-12T10:51:59.206Z,2.70
2023-01-12T10:54:26.984Z,2.60
2023-01-12T10:56:59.505Z,2.60
2023-01-12T10:59:29.435Z,2.60
2023-01-12T11:02:12.209Z,2.70
2023-01-12T11:04:42.292Z,2.70
2023-01-12T11:07:12.410Z,2.70
2023-01-12T11:09:37.258Z,2.90
2023-01-12T11:12:03.290Z,3.10
2023-01-12T11:14:31.240Z,3.20
2023-01-12T11:17:00.765Z,3.20
2023-01-12T11:19:30.923Z,3.30
2023-01-12T11:22:03.745Z,3.40
2023-01-12T11:24:39.416Z,3.40
2023-01-12T11:27:11.498Z,3.40
2023-01-12T11:29:46.444Z,3.40
2023-01-12T11:32:17.340Z,3.30
2023-01-12T11:34:55.875Z,3.20
2023-01-12T11:37:21.921Z,3.10
2023-01-12T11:39:47.430Z,3.10
2023-01-12T11:42:36.531Z,3.10
2023-01-12T11:45:08.189Z,3.10
2023-01-12T11:47:37.674Z,3.10
2023-01-12T11:50:07.839Z,3.00
2023-01-12T11:52:34.398Z,3.10
2023-01-12T11:54:59.285Z,3.20
2023-01-12T11:57:46.324Z,3.20
2023-01-12T12:00:22.701Z,3.30
2023-01-12T12:02:56.944Z,3.30
2023-01-12T12:05:30.670Z,3.20
2023-01-12T12:08:09.742Z,3.30
2023-01-12T12:10:43.202Z,3.10
2023-01-12T12:13:33.200Z,3.20
2023-01-12T12:16:01.404Z,3.30
2023-01-12T12:18:40.421Z,3.10
2023-01-12T12:21:17.455Z,3.20
2023-01-12T12:23:52.988Z,3.20
2023-01-12T12:26:24.782Z,3.30
2023-01-12T12:29:08.849Z,3.40
2023-01-12T12:31:55.128Z,3.50
2023-01-12T12:35:05.781Z,3.50
2023-01-12T12:37:44.663Z,3.50
2023-01-12T12:40:30.957Z,3.60
2023-01-12T12:43:22.580Z,3.60
2023-01-12T12:45:54.310Z,3.70
2023-01-12T12:48:25.078Z,3.70
2023-01-12T12:51:00.549Z,3.50
2023-01-12T12:53:29.058Z,3.40
2023-01-12T12:55:58.498Z,3.40
2023-01-12T12:58:45.899Z,3.30
2023-01-12T13:01:55.544Z,3.30
2023-01-12T13:04:55.182Z,3.20
2023-01-12T13:07:22.328Z,3.10
2023-01-12T13:09:48.043Z,3.20
2023-01-12T13:12:35.783Z,3.20
2023-01-12T13:15:26.628Z,3.20
2023-01-12T13:17:54.375Z,3.40
2023-01-12T13:20:41.009Z,3.30
2023-01-12T13:23:21.311Z,3.30
2023-01-12T13:25:58.744Z,3.10
2023-01-12T13:28:24.921Z,3.10
2023-01-12T13:30:55.627Z,3.10
2023-01-12T13:33:26.184Z,3.20
2023-01-12T13:36:10.833Z,3.20
2023-01-12T13:38:49.365Z,3.20
2023-01-12T13:41:41.666Z,3.20
2023-01-12T13:44:10.754Z,3.10
2023-01-12T13:46:41.555Z,3.20
2023-01-12T13:49:26.657Z,3.10
2023-01-12T13:51:57.753Z,3.20
2023-01-12T13:54:22.309Z,3.30
2023-01-12T13:56:54.908Z,3.20
2023-01-12T13:59:25.303Z,3.20
2023-01-12T14:01:50.250Z,3.30
2023-01-12T14:04:34.358Z,3.10
2023-01-12T14:07:09.605Z,3.10
2023-01-12T14:09:43.494Z,3.10
2023-01-12T14:12:28.876Z,3.10
2023-01-12T14:15:25.914Z,3.10
2023-01-12T14:17:53.213Z,3.00
2023-01-12T14:20:19.633Z,2.80
2023-01-12T14:22:46.211Z,2.70
2023-01-12T14:25:16.160Z,2.70
2023-01-12T14:27:40.895Z,2.80
2023-01-12T14:30:13.814Z,2.80
2023-01-12T14:32:38.425Z,2.80
2023-01-12T14:35:02.877Z,2.70
2023-01-12T14:37:31.346Z,2.70
2023-01-12T14:39:56.753Z,2.50
2023-01-12T14:42:42.519Z,2.30
2023-01-12T14:45:41.636Z,2.30
2023-01-12T14:48:21.943Z,2.50
2023-01-12T14:51:01.853Z,2.50
2023-01-12T14:53:31.657Z,2.60
2023-01-12T14:55:56.170Z,2.70
2023-01-12T14:58:22.406Z,2.70
2023-01-12T15:00:48.328Z,2.70
2023-01-12T15:03:26.298Z,2.80
2023-01-12T15:05:55.300Z,2.90
2023-01-12T15:08:26.800Z,2.90
2023-01-12T15:10:58.795Z,2.90
2023-01-12T15:13:28.400Z,2.90
2023-01-12T15:16:13.393Z,2.80
2023-01-12T15:18:55.375Z,2.80
2023-01-12T15:21:37.486Z,2.80
2023-01-12T15:24:19.484Z,2.80
2023-01-12T15:26:47.889Z,2.90
2023-01-12T15:29:15.521Z,2.80
2023-01-12T15:31:41.573Z,2.80
2023-01-12T15:34:06.995Z,2.60
2023-01-12T15:36:31.531Z,2.70
2023-01-12T15:38:56.123Z,2.80
2023-01-12T15:41:45.151Z,2.80
2023-01-12T15:44:14.096Z,2.80
2023-01-12T15:46:38.502Z,2.80
2023-01-12T15:49:07.083Z,2.80
2023-01-12T15:51:31.564Z,2.90
2023-01-12T15:53:56.016Z,3.00
2023-01-12T15:56:20.428Z,3.10
2023-01-12T15:58:44.908Z,3.20
2023-01-12T16:01:11.093Z,3.20
2023-01-12T16:04:04.940Z,3.10
2023-01-12T16:06:24.713Z,3.10
2023-01-12T16:08:49.126Z,3.10
2023-01-12T16:11:23.961Z,3.00
2023-01-12T16:13:50.199Z,3.10
2023-01-12T16:16:19.668Z,3.20
2023-01-12T16:18:44.466Z,3.00
2023-01-12T16:21:10.403Z,3.00
2023-01-12T16:23:37.662Z,3.00
2023-01-12T16:26:03.014Z,3.00
2023-01-12T16:28:28.287Z,2.90
2023-01-12T16:30:52.960Z,2.90
2023-01-12T16:33:17.911Z,3.00
2023-01-12T16:35:44.495Z,3.00
2023-01-12T16:38:09.290Z,2.90
2023-01-12T16:40:35.377Z,2.80
2023-01-12T16:43:00.638Z,2.80
2023-01-12T16:45:25.323Z,2.70
2023-01-12T16:47:50.200Z,2.60
2023-01-12T16:50:15.598Z,2.60
2023-01-12T16:52:41.622Z,2.70
2023-01-12T16:55:06.585Z,2.60
2023-01-12T16:57:33.656Z,2.70
2023-01-12T16:59:58.048Z,3.10
2023-01-12T17:02:22.797Z,3.20
2023-01-12T17:04:51.983Z,3.10
2023-01-12T17:07:16.947Z,3.00
2023-01-12T17:09:45.196Z,2.80
2023-01-12T17:12:11.760Z,3.00
2023-01-12T17:14:37.800Z,2.80
2023-01-12T17:17:05.749Z,2.70
2023-01-12T17:19:34.107Z,2.70
2023-01-12T17:22:01.572Z,2.80
2023-01-12T17:24:27.600Z,2.90
2023-01-12T17:26:54.022Z,2.90
2023-01-12T17:29:18.617Z,2.80
2023-01-12T17:31:45.191Z,2.70
2023-01-12T17:34:14.255Z,2.60
2023-01-12T17:36:38.891Z,2.70
2023-01-12T17:39:04.138Z,2.70
2023-01-12T17:41:46.521Z,2.60
2023-01-12T17:44:11.592Z,2.60
2023-01-12T17:46:37.017Z,2.60
2023-01-12T17:49:06.062Z,2.70
2023-01-12T17:51:30.698Z,2.60
2023-01-12T17:53:55.654Z,2.80
2023-01-12T17:56:20.271Z,2.80
2023-01-12T17:58:44.826Z,2.90
2023-01-12T18:01:13.173Z,2.90
2023-01-12T18:03:37.898Z,2.90
2023-01-12T18:06:09.082Z,2.90
2023-01-12T18:08:36.911Z,2.80
2023-01-12T18:11:02.772Z,2.70
2023-01-12T18:13:27.403Z,2.70
2023-01-12T18:15:52.957Z,2.80
2023-01-12T18:18:17.619Z,2.80
2023-01-12T18:20:42.266Z,2.80
2023-01-12T18:23:08.548Z,2.80
2023-01-12T18:25:36.682Z,2.80
2023-01-12T18:28:01.285Z,2.80
2023-01-12T18:30:27.383Z,2.70
2023-01-12T18:32:51.961Z,2.70
2023-01-12T18:35:16.622Z,2.70
2023-01-12T18:37:41.462Z,2.70
2023-01-12T18:40:10.447Z,2.80
2023-01-12T18:42:53.451Z,2.80
2023-01-12T18:45:19.428Z,2.80
2023-01-12T18:48:13.089Z,2.90
2023-01-12T18:50:55.069Z,2.90
2023-01-12T18:53:30.093Z,2.70
2023-01-12T18:55:58.320Z,2.80
2023-01-12T18:58:24.324Z,2.80
2023-01-12T19:00:49.052Z,2.80
2023-01-12T19:03:13.803Z,2.70
2023-01-12T19:05:49.255Z,2.80
2023-01-12T19:08:42.317Z,2.90
2023-01-12T19:11:12.791Z,2.90
2023-01-12T19:13:55.318Z,2.80
2023-01-12T19:16:37.863Z,2.80
2023-01-12T19:19:02.279Z,2.80
2023-01-12T19:21:44.132Z,2.90
2023-01-12T19:24:27.179Z,2.90
2023-01-12T19:27:12.984Z,2.80
2023-01-12T19:29:39.253Z,2.80
2023-01-12T19:32:05.476Z,2.90
2023-01-12T19:34:30.205Z,2.90
2023-01-12T19:36:55.600Z,2.90
2023-01-12T19:39:33.206Z,2.90
2023-01-12T19:42:16.936Z,2.80
2023-01-12T19:44:42.374Z,2.80
2023-01-12T19:47:09.641Z,2.80
2023-01-12T19:49:34.617Z,2.80
2023-01-12T19:51:59.591Z,2.70
2023-01-12T19:54:25.028Z,2.70
2023-01-12T19:56:49.447Z,2.70
2023-01-12T19:59:15.572Z,2.80
2023-01-12T20:01:40.113Z,2.80
2023-01-12T20:04:04.815Z,2.90
2023-01-12T20:06:29.387Z,2.90
2023-01-12T20:08:53.725Z,2.90
2023-01-12T20:11:18.273Z,2.90
2023-01-12T20:13:42.778Z,3.00
2023-01-12T20:16:10.474Z,2.90
2023-01-12T20:18:35.223Z,2.80
2023-01-12T20:21:01.044Z,2.80
2023-01-12T20:23:25.460Z,2.90
2023-01-12T20:25:50.212Z,3.20
2023-01-12T20:28:15.695Z,3.30
2023-01-12T20:30:42.003Z,3.20
2023-01-12T20:33:08.025Z,3.10
2023-01-12T20:35:32.883Z,3.10
2023-01-12T20:37:57.434Z,3.10
2023-01-12T20:40:22.258Z,3.10
2023-01-12T20:42:47.012Z,3.10
2023-01-12T20:45:13.815Z,3.00
2023-01-12T20:47:38.386Z,3.00
2023-01-12T20:50:07.950Z,2.80
2023-01-12T20:52:33.138Z,2.80
2023-01-12T20:54:57.810Z,2.60
2023-01-12T20:57:22.684Z,2.60
2023-01-12T20:59:48.466Z,2.70
2023-01-12T21:02:18.574Z,2.70
2023-01-12T21:04:46.162Z,2.60
2023-01-12T21:07:12.916Z,2.60
2023-01-12T21:09:37.330Z,2.60
2023-01-12T21:12:01.763Z,2.60
2023-01-12T21:14:28.388Z,2.70
2023-01-12T21:16:53.187Z,2.70
2023-01-12T21:19:18.253Z,2.50
2023-01-12T21:21:42.687Z,2.60
2023-01-12T21:24:09.231Z,2.50
2023-01-12T21:26:33.798Z,2.70
2023-01-12T21:28:59.164Z,2.60
2023-01-12T21:31:23.641Z,2.70
2023-01-12T21:33:47.981Z,2.70
2023-01-12T21:36:14.204Z,2.70
2023-01-12T21:38:38.690Z,2.70
2023-01-12T21:41:06.161Z,2.80
2023-01-12T21:43:31.164Z,2.80
2023-01-12T21:45:57.461Z,2.80
2023-01-12T21:48:23.575Z,2.70
2023-01-12T21:50:48.348Z,2.70
2023-01-12T21:53:16.126Z,2.70
2023-01-12T21:55:40.813Z,2.70
2023-01-12T21:58:07.142Z,2.80
2023-01-12T22:00:33.107Z,2.80
2023-01-12T22:02:58.197Z,2.80
2023-01-12T22:05:23.045Z,2.90
2023-01-12T22:07:48.386Z,2.80
2023-01-12T22:10:22.180Z,2.80
2023-01-12T22:12:46.723Z,2.70
2023-01-12T22:15:13.472Z,2.60
2023-01-12T22:17:37.874Z,2.60
2023-01-12T22:20:02.190Z,2.80
2023-01-12T22:22:28.672Z,2.80
2023-01-12T22:24:53.011Z,2.90
2023-01-12T22:27:17.397Z,3.00
2023-01-12T22:29:41.732Z,3.10
2023-01-12T22:32:08.817Z,3.00
2023-01-12T22:34:33.173Z,3.00
2023-01-12T22:36:57.534Z,3.10
2023-01-12T22:39:21.962Z,3.10
2023-01-12T22:41:47.441Z,3.20
2023-01-12T22:44:11.942Z,3.00
2023-01-12T22:46:37.067Z,2.70
2023-01-12T22:49:02.945Z,2.70
2023-01-12T22:51:29.515Z,2.60
2023-01-12T22:53:54.431Z,2.70
2023-01-12T22:56:19.192Z,2.70
2023-01-12T22:58:47.780Z,2.70
2023-01-12T23:01:12.233Z,2.70
2023-01-12T23:03:37.585Z,2.70
2023-01-12T23:06:04.152Z,2.80
2023-01-12T23:08:28.804Z,2.90
2023-01-12T23:10:53.761Z,2.90
2023-01-12T23:13:20.455Z,2.90
2023-01-12T23:15:47.731Z,2.90
2023-01-12T23:18:13.042Z,2.90
2023-01-12T23:20:38.306Z,2.90
2023-01-12T23:23:04.527Z,2.90
2023-01-12T23:25:28.883Z,3.00
2023-01-12T23:27:53.859Z,3.00
2023-01-12T23:30:18.729Z,3.00
2023-01-12T23:32:43.361Z,3.00
2023-01-12T23:35:08.294Z,3.00
2023-01-12T23:37:32.702Z,3.10
2023-01-12T23:39:58.467Z,3.10
2023-01-12T23:42:22.876Z,3.20
2023-01-12T23:44:48.114Z,3.10
2023-01-12T23:47:15.667Z,3.10
2023-01-12T23:49:40.003Z,3.10
2023-01-12T23:52:04.444Z,3.20
2023-01-12T23:54:29.147Z,3.10
2023-01-12T23:56:54.902Z,3.10
2023-01-12T23:59:19.296Z,3.10
